Time;durP1;ratioP1;P1;durP2;ratioP2;P2;SDS_P1;SDS_P2;PMS_P1;PMS_P2;Temp;Humidity;BMP_temperature;BMP_pressure;BME280_temperature;BME280_humidity;BME280_pressure;Samples;Min_cycle;Max_cycle;Signal;HPM_P1;HPM_P2
2022/05/08 00:01:10;;;;;;;16.25;8.60;;;12.70;99.90;;;;;;5085784;28;39041;-78
2022/05/08 00:03:36;;;;;;;12.38;8.48;;;12.70;99.90;;;;;;5088591;28;36710;-79
2022/05/08 00:06:07;;;;;;;19.73;9.13;;;12.70;99.90;;;;;;5080416;28;38101;-77
2022/05/08 00:08:33;;;;;;;15.15;8.75;;;12.60;99.90;;;;;;5082204;28;38534;-77
2022/05/08 00:10:59;;;;;;;18.38;8.55;;;12.60;99.90;;;;;;5088175;27;38362;-77
2022/05/08 00:13:25;;;;;;;12.57;7.70;;;12.60;99.90;;;;;;5081483;27;39715;-77
2022/05/08 00:15:51;;;;;;;15.68;8.10;;;12.60;99.90;;;;;;5077889;27;38874;-77
2022/05/08 00:18:17;;;;;;;13.63;8.48;;;12.60;99.90;;;;;;5076741;27;35961;-77
2022/05/08 00:20:43;;;;;;;14.98;8.43;;;12.60;99.90;;;;;;5081993;28;39372;-77
2022/05/08 00:23:09;;;;;;;19.77;9.43;;;12.50;99.90;;;;;;5081620;27;39431;-77
2022/05/08 00:25:35;;;;;;;15.65;8.05;;;12.50;99.90;;;;;;5084690;27;36923;-77
2022/05/08 00:28:01;;;;;;;12.68;7.45;;;12.50;99.90;;;;;;5079746;27;36066;-77
2022/05/08 00:30:28;;;;;;;13.95;7.88;;;12.50;99.90;;;;;;5053844;28;39056;-77
2022/05/08 00:32:54;;;;;;;14.98;7.18;;;12.40;99.90;;;;;;5052875;28;38631;-77
2022/05/08 00:35:23;;;;;;;15.55;7.95;;;12.40;99.90;;;;;;5050128;28;38316;-77
2022/05/08 00:37:49;;;;;;;14.90;7.95;;;12.40;99.90;;;;;;5058477;28;35970;-77
2022/05/08 00:40:15;;;;;;;12.65;7.35;;;12.40;99.90;;;;;;5053633;28;38458;-76
2022/05/08 00:42:42;;;;;;;14.73;8.10;;;12.40;99.90;;;;;;5054120;28;38496;-76
2022/05/08 00:45:09;;;;;;;13.77;6.65;;;12.40;99.90;;;;;;5052606;28;38031;-77
2022/05/08 00:47:36;;;;;;;11.18;6.47;;;12.40;99.90;;;;;;5056111;28;37080;-76
2022/05/08 00:50:03;;;;;;;18.65;7.03;;;12.30;99.90;;;;;;5061702;28;39662;-77
2022/05/08 00:52:30;;;;;;;11.15;6.60;;;12.30;99.90;;;;;;5090102;27;35654;-77
2022/05/08 00:54:56;;;;;;;19.38;7.47;;;12.20;99.90;;;;;;5061165;28;38027;-77
2022/05/08 00:57:22;;;;;;;16.58;6.93;;;12.20;99.90;;;;;;5079309;28;37645;-77
2022/05/08 00:59:49;;;;;;;13.40;7.35;;;12.20;99.90;;;;;;5077710;28;37451;-77
2022/05/08 01:02:15;;;;;;;14.65;6.95;;;12.10;99.90;;;;;;5081208;28;38705;-76
2022/05/08 01:04:45;;;;;;;13.15;6.38;;;12.10;99.90;;;;;;5077736;28;37570;-77
2022/05/08 01:07:11;;;;;;;13.13;6.18;;;12.10;99.90;;;;;;5101669;27;37231;-77
2022/05/08 01:09:38;;;;;;;13.68;6.75;;;12.10;99.90;;;;;;5081232;28;38715;-77
2022/05/08 01:12:06;;;;;;;10.13;6.40;;;12.20;99.90;;;;;;5081218;28;38366;-78
2022/05/08 01:14:32;;;;;;;14.30;6.15;;;12.20;99.90;;;;;;5076470;28;37162;-77
2022/05/08 01:16:59;;;;;;;13.57;6.32;;;12.10;99.90;;;;;;5075205;28;37437;-76
2022/05/08 01:19:25;;;;;;;21.02;7.22;;;12.10;99.90;;;;;;5076150;28;39484;-79
2022/05/08 01:21:52;;;;;;;17.02;6.88;;;12.00;99.90;;;;;;5071395;28;40752;-76
2022/05/08 01:24:22;;;;;;;18.83;7.38;;;12.00;99.90;;;;;;5068549;28;38996;-77
2022/05/08 01:26:48;;;;;;;14.82;7.28;;;11.90;99.90;;;;;;5074517;28;37491;-77
2022/05/08 01:29:23;;;;;;;16.98;7.03;;;11.90;99.90;;;;;;5067933;27;40518;-76
2022/05/08 01:31:52;;;;;;;17.17;8.25;;;11.80;99.90;;;;;;5103130;27;38428;-76
2022/05/08 01:34:18;;;;;;;15.80;7.47;;;11.70;99.90;;;;;;5072544;28;37989;-79
2022/05/08 01:36:44;;;;;;;16.27;7.18;;;11.70;99.90;;;;;;5081618;27;35864;-77
2022/05/08 01:39:10;;;;;;;16.95;7.38;;;11.60;99.90;;;;;;5071447;28;38893;-77
2022/05/08 01:41:36;;;;;;;14.45;6.75;;;11.60;99.90;;;;;;5073163;28;38708;-77
2022/05/08 01:44:03;;;;;;;22.90;7.45;;;11.50;99.90;;;;;;5069483;27;38254;-77
2022/05/08 01:46:30;;;;;;;18.50;6.75;;;11.50;99.90;;;;;;5078210;28;38373;-76
2022/05/08 01:48:56;;;;;;;19.20;7.43;;;11.40;99.90;;;;;;5089122;27;38800;-76
2022/05/08 01:51:23;;;;;;;20.35;7.45;;;11.40;99.90;;;;;;5090888;27;37546;-76
2022/05/08 01:53:49;;;;;;;18.35;7.30;;;11.40;99.90;;;;;;5059487;27;41085;-76
2022/05/08 01:56:21;;;;;;;16.58;7.35;;;11.40;99.90;;;;;;5091013;27;36710;-76
2022/05/08 01:58:50;;;;;;;19.55;7.93;;;11.40;99.90;;;;;;5090196;28;37656;-77
2022/05/08 02:01:19;;;;;;;26.95;8.25;;;11.40;99.90;;;;;;5080553;28;38505;-76
2022/05/08 02:03:47;;;;;;;25.02;8.60;;;11.40;99.90;;;;;;5083454;27;39084;-76
2022/05/08 02:06:19;;;;;;;22.85;7.85;;;11.40;99.90;;;;;;5086590;27;37139;-76
2022/05/08 02:08:45;;;;;;;18.80;7.07;;;11.30;99.90;;;;;;5060402;27;40658;-76
2022/05/08 02:11:11;;;;;;;19.00;7.82;;;11.30;99.90;;;;;;5064155;28;37558;-77
2022/05/08 02:13:42;;;;;;;19.98;7.43;;;11.20;99.90;;;;;;5084153;27;37186;-76
2022/05/08 02:16:11;;;;;;;23.77;7.72;;;11.20;99.90;;;;;;5063887;28;36586;-77
2022/05/08 02:18:40;;;;;;;17.08;7.93;;;11.20;99.90;;;;;;5057176;28;39438;-77
2022/05/08 02:21:06;;;;;;;18.65;7.78;;;11.10;99.90;;;;;;5058664;28;37439;-76
2022/05/08 02:23:35;;;;;;;21.00;7.68;;;11.10;99.90;;;;;;5062786;28;36736;-76
2022/05/08 02:26:01;;;;;;;20.25;7.88;;;11.10;99.90;;;;;;5049124;28;37499;-77
2022/05/08 02:28:27;;;;;;;20.40;7.43;;;11.00;99.90;;;;;;5070903;27;49682;-76
2022/05/08 02:30:56;;;;;;;18.27;8.23;;;11.00;99.90;;;;;;5058173;27;37517;-76
2022/05/08 02:33:22;;;;;;;19.23;7.25;;;11.00;99.90;;;;;;5076979;27;38952;-77
2022/05/08 02:35:48;;;;;;;24.50;9.10;;;11.00;99.90;;;;;;5056182;27;36255;-76
2022/05/08 02:38:14;;;;;;;20.13;7.43;;;10.90;99.90;;;;;;5066047;27;37689;-76
2022/05/08 02:40:40;;;;;;;17.25;7.65;;;10.90;99.90;;;;;;5058282;28;38808;-77
2022/05/08 02:43:06;;;;;;;17.33;8.30;;;10.90;99.90;;;;;;5054580;27;37047;-77
2022/05/08 02:45:32;;;;;;;18.58;7.95;;;10.90;99.90;;;;;;5054510;28;36689;-77
2022/05/08 02:47:58;;;;;;;20.42;8.07;;;10.90;99.90;;;;;;5077507;27;38838;-77
2022/05/08 02:50:25;;;;;;;19.02;8.40;;;10.90;99.90;;;;;;5053392;27;38317;-76
2022/05/08 02:52:51;;;;;;;17.55;8.68;;;10.80;99.90;;;;;;5056298;28;38169;-76
2022/05/08 03:00:50;;;;;;;23.80;9.02;;;10.70;99.90;;;;;;5055501;27;37761;-76
2022/05/08 03:03:17;;;;;;;18.80;8.85;;;10.80;99.90;;;;;;5086342;27;39126;-77
2022/05/08 03:05:45;;;;;;;18.80;7.70;;;10.80;99.90;;;;;;5074277;28;35189;-76
2022/05/08 03:08:14;;;;;;;22.30;8.40;;;10.70;99.90;;;;;;5089952;27;39761;-75
2022/05/08 03:13:26;;;;;;;19.13;6.00;;;10.70;99.90;;;;;;5074790;28;48124;-76
2022/05/08 03:15:58;;;;;;;18.48;6.07;;;10.70;99.90;;;;;;5082303;28;37305;-76
2022/05/08 03:18:24;;;;;;;23.77;5.03;;;10.60;99.90;;;;;;5081070;28;39600;-77
2022/05/08 03:20:53;;;;;;;23.52;4.88;;;10.60;99.90;;;;;;5074859;27;38499;-76
2022/05/08 03:23:19;;;;;;;18.00;4.60;;;10.50;99.90;;;;;;5059509;27;37995;-76
2022/05/08 03:25:45;;;;;;;18.33;4.07;;;10.50;99.90;;;;;;5077545;28;36643;-76
2022/05/08 03:28:15;;;;;;;21.20;4.47;;;10.50;99.90;;;;;;5080795;28;38726;-76
2022/05/08 03:30:48;;;;;;;21.90;4.68;;;10.50;99.90;;;;;;5072476;28;38670;-76
2022/05/08 03:33:14;;;;;;;21.25;4.15;;;10.50;99.90;;;;;;5067259;28;37410;-76
2022/05/08 03:35:49;;;;;;;20.52;4.10;;;10.40;99.90;;;;;;5080769;28;37623;-76
2022/05/08 03:38:18;;;;;;;21.77;4.72;;;10.40;99.90;;;;;;5071343;28;39044;-76
2022/05/08 03:40:44;;;;;;;17.30;4.32;;;10.30;99.90;;;;;;5077037;28;37213;-77
2022/05/08 03:43:10;;;;;;;25.05;4.45;;;10.30;99.90;;;;;;5078695;28;38717;-77
2022/05/08 03:45:36;;;;;;;18.15;3.25;;;10.20;99.90;;;;;;5082516;28;35989;-76
2022/05/08 03:48:06;;;;;;;19.90;3.85;;;10.20;99.90;;;;;;5087939;27;38911;-76
2022/05/08 03:50:32;;;;;;;16.55;3.97;;;10.10;99.90;;;;;;5078221;28;38504;-76
2022/05/08 03:53:04;;;;;;;24.25;5.03;;;10.10;99.90;;;;;;5082945;28;39321;-76
2022/05/08 03:55:30;;;;;;;24.23;4.57;;;10.00;99.90;;;;;;5071095;28;47317;-76
2022/05/08 03:57:56;;;;;;;19.80;4.20;;;10.00;99.90;;;;;;5086795;27;38843;-77
2022/05/08 04:00:22;;;;;;;20.92;4.25;;;9.90;99.90;;;;;;5072240;27;38073;-76
2022/05/08 04:02:48;;;;;;;17.35;3.70;;;9.90;99.90;;;;;;5082759;28;35120;-76
2022/05/08 04:05:15;;;;;;;19.15;3.53;;;9.80;99.90;;;;;;5068006;28;37457;-78
2022/05/08 04:07:41;;;;;;;17.10;4.05;;;9.70;99.90;;;;;;5077123;27;38877;-76
2022/05/08 04:10:08;;;;;;;19.50;4.03;;;9.70;99.90;;;;;;5085946;28;38289;-77
2022/05/08 04:12:35;;;;;;;24.90;4.68;;;9.70;99.90;;;;;;5080988;27;38111;-76
2022/05/08 04:15:01;;;;;;;18.95;3.38;;;9.70;99.90;;;;;;5081867;28;36454;-76
2022/05/08 04:17:28;;;;;;;13.38;3.75;;;9.60;99.90;;;;;;5072008;28;47484;-78
2022/05/08 04:19:55;;;;;;;21.80;4.47;;;9.70;99.90;;;;;;5095214;27;37721;-76
2022/05/08 04:25:10;;;;;;;24.75;4.50;;;9.60;99.90;;;;;;5069584;28;37911;-76
2022/05/08 04:27:37;;;;;;;23.80;4.13;;;9.60;99.90;;;;;;5066187;28;38973;-76
2022/05/08 04:30:05;;;;;;;22.70;4.15;;;9.60;99.90;;;;;;5070311;28;38860;-77
2022/05/08 04:32:33;;;;;;;29.00;4.13;;;9.60;99.90;;;;;;5074025;28;37970;-80
2022/05/08 04:34:59;;;;;;;24.63;3.70;;;9.60;99.90;;;;;;5074668;28;36189;-78
2022/05/08 04:37:25;;;;;;;23.87;5.60;;;9.70;99.90;;;;;;5081939;28;39357;-76
2022/05/08 04:39:51;;;;;;;21.00;4.00;;;9.70;99.90;;;;;;5080330;28;37235;-76
2022/05/08 04:42:19;;;;;;;22.20;4.40;;;9.70;99.90;;;;;;5075443;27;20130;-76
2022/05/08 04:44:45;;;;;;;23.30;4.18;;;9.80;99.90;;;;;;5074705;28;36937;-76
2022/05/08 04:47:11;;;;;;;19.87;4.00;;;9.70;99.90;;;;;;5076597;28;37849;-77
2022/05/08 04:49:37;;;;;;;25.40;4.20;;;9.70;99.90;;;;;;5045342;28;37703;-77
2022/05/08 04:52:03;;;;;;;28.77;4.23;;;9.70;99.90;;;;;;5054257;28;38734;-76
2022/05/08 04:54:29;;;;;;;18.65;4.10;;;9.70;99.90;;;;;;5080063;28;37058;-76
2022/05/08 04:56:55;;;;;;;25.53;4.73;;;9.60;99.90;;;;;;5080150;27;39405;-76
2022/05/08 04:59:21;;;;;;;24.20;5.00;;;9.60;99.90;;;;;;5081808;28;39182;-77
2022/05/08 05:01:49;;;;;;;28.40;5.00;;;9.60;99.90;;;;;;5074079;28;39099;-77
2022/05/08 05:04:15;;;;;;;25.17;4.37;;;9.60;99.90;;;;;;5076813;28;36741;-75
2022/05/08 05:06:43;;;;;;;20.87;4.07;;;9.60;99.90;;;;;;5078093;28;39358;-75
2022/05/08 05:09:09;;;;;;;22.73;4.60;;;9.70;99.90;;;;;;5074172;27;38039;-76
2022/05/08 05:11:35;;;;;;;32.07;5.60;;;9.70;99.90;;;;;;5074921;28;39833;-77
2022/05/08 05:14:01;;;;;;;21.80;4.63;;;9.70;99.90;;;;;;5074039;28;37220;-77
2022/05/08 05:16:27;;;;;;;24.33;4.30;;;9.70;99.90;;;;;;5076613;28;48744;-76
2022/05/08 05:18:54;;;;;;;18.13;3.97;;;9.70;99.90;;;;;;5078668;28;37298;-78
2022/05/08 05:21:21;;;;;;;21.23;3.90;;;9.70;99.90;;;;;;5080643;28;38344;-78
2022/05/08 05:23:47;;;;;;;20.30;3.83;;;9.80;99.90;;;;;;5078932;28;36906;-77
2022/05/08 05:26:13;;;;;;;18.10;3.97;;;9.80;99.90;;;;;;5079244;28;39464;-78
2022/05/08 05:28:39;;;;;;;24.38;6.03;;;9.80;99.90;;;;;;5075042;28;38576;-76
2022/05/08 05:31:05;;;;;;;23.37;4.57;;;9.90;99.90;;;;;;5078206;28;38054;-75
2022/05/08 05:33:31;;;;;;;16.83;4.50;;;9.90;99.90;;;;;;5076692;28;35769;-77
2022/05/08 05:35:57;;;;;;;22.08;4.07;;;9.90;99.90;;;;;;5082833;28;39229;-78
2022/05/08 05:38:23;;;;;;;16.65;3.60;;;10.00;99.90;;;;;;5080814;28;39096;-77
2022/05/08 05:40:49;;;;;;;25.50;4.55;;;10.00;99.90;;;;;;5077077;28;37918;-77
2022/05/08 05:43:15;;;;;;;23.80;4.03;;;10.10;99.90;;;;;;5075294;28;37104;-79
2022/05/08 05:45:41;;;;;;;20.80;4.05;;;10.10;99.90;;;;;;5078252;28;39347;-78
2022/05/08 05:48:08;;;;;;;18.83;3.47;;;10.10;99.90;;;;;;5072861;28;39936;-78
2022/05/08 05:50:34;;;;;;;15.10;3.25;;;10.20;99.90;;;;;;5071770;28;37696;-78
2022/05/08 05:53:00;;;;;;;21.92;3.83;;;10.20;99.90;;;;;;5072003;28;37919;-79
2022/05/08 05:55:29;;;;;;;17.67;3.30;;;10.20;99.90;;;;;;5077996;28;38773;-77
2022/05/08 05:57:58;;;;;;;21.42;3.90;;;10.30;99.90;;;;;;5073694;28;38808;-78
2022/05/08 06:00:24;;;;;;;15.95;3.20;;;10.30;99.90;;;;;;5068358;28;38236;-79
2022/05/08 06:02:51;;;;;;;17.42;3.75;;;10.40;99.90;;;;;;5075395;28;38102;-76
2022/05/08 06:05:17;;;;;;;17.92;3.95;;;10.40;99.90;;;;;;5088180;27;37856;-76
2022/05/08 06:07:43;;;;;;;23.42;3.25;;;10.50;99.90;;;;;;5086947;28;39045;-76
2022/05/08 06:10:11;;;;;;;14.95;3.17;;;10.60;99.90;;;;;;5087089;28;37105;-77
2022/05/08 06:12:37;;;;;;;21.98;4.00;;;10.60;99.90;;;;;;5080505;28;36062;-77
2022/05/08 06:15:05;;;;;;;19.55;3.95;;;10.70;99.90;;;;;;5081075;27;38563;-76
2022/05/08 06:17:31;;;;;;;19.73;3.88;;;10.80;99.90;;;;;;5082247;28;39311;-79
2022/05/08 06:19:57;;;;;;;18.17;3.47;;;10.90;99.90;;;;;;5079257;27;37557;-76
2022/05/08 06:22:23;;;;;;;16.33;3.85;;;11.00;99.90;;;;;;5074492;28;35894;-77
2022/05/08 06:24:49;;;;;;;13.35;3.53;;;11.00;99.90;;;;;;5072597;28;38259;-76
2022/05/08 06:27:15;;;;;;;21.50;4.03;;;11.10;99.90;;;;;;5077047;28;37980;-76
2022/05/08 06:29:41;;;;;;;15.88;3.35;;;11.10;99.90;;;;;;5078718;28;37417;-76
2022/05/08 06:32:08;;;;;;;17.83;3.50;;;11.40;99.90;;;;;;5073204;28;37430;-77
2022/05/08 06:34:37;;;;;;;24.52;4.20;;;11.50;99.90;;;;;;5072089;28;39107;-76
2022/05/08 06:37:04;;;;;;;24.92;4.47;;;11.70;99.90;;;;;;5063303;27;37179;-76
2022/05/08 06:39:30;;;;;;;22.35;3.50;;;12.00;99.90;;;;;;5076478;27;38391;-77
2022/05/08 06:41:56;;;;;;;19.48;3.63;;;12.10;99.90;;;;;;5100984;27;36943;-77
2022/05/08 06:44:25;;;;;;;20.45;3.97;;;12.10;99.90;;;;;;5071905;28;38659;-77
2022/05/08 06:46:51;;;;;;;18.83;4.05;;;12.10;99.90;;;;;;5076435;28;38385;-77
2022/05/08 06:49:17;;;;;;;20.60;3.40;;;12.10;99.90;;;;;;5074189;28;38280;-77
2022/05/08 06:51:47;;;;;;;16.45;3.47;;;12.10;99.90;;;;;;5075066;28;37328;-77
2022/05/08 06:54:13;;;;;;;13.10;3.10;;;12.00;99.90;;;;;;5074267;28;38071;-76
2022/05/08 06:56:44;;;;;;;19.60;3.97;;;12.20;99.90;;;;;;5078451;28;38875;-77
2022/05/08 07:01:55;;;;;;;14.65;3.20;;;12.40;99.90;;;;;;5074302;27;49489;-77
2022/05/08 07:04:30;;;;;;;19.13;3.70;;;12.50;99.90;;;;;;5073216;28;37764;-77
2022/05/08 07:06:56;;;;;;;14.32;2.97;;;12.80;99.90;;;;;;5086965;28;37555;-76
2022/05/08 07:09:22;;;;;;;29.65;3.92;;;12.70;99.90;;;;;;5073716;28;37668;-77
2022/05/08 07:11:48;;;;;;;17.13;3.33;;;12.60;99.90;;;;;;5087740;27;36511;-77
2022/05/08 07:14:15;;;;;;;18.38;3.60;;;12.70;99.90;;;;;;5093679;28;37990;-78
2022/05/08 07:16:41;;;;;;;18.95;4.47;;;13.00;99.90;;;;;;5074852;28;38908;-77
2022/05/08 07:19:08;;;;;;;22.33;3.72;;;13.10;99.90;;;;;;5088799;27;36799;-79
2022/05/08 07:21:34;;;;;;;17.90;3.65;;;13.20;99.90;;;;;;5076794;28;37116;-79
2022/05/08 07:24:00;;;;;;;17.08;3.17;;;13.00;99.90;;;;;;5083835;28;39560;-78
2022/05/08 07:26:26;;;;;;;19.52;3.65;;;12.80;99.90;;;;;;5094698;27;37132;-78
2022/05/08 07:28:52;;;;;;;15.95;3.17;;;12.90;99.90;;;;;;5080324;28;38093;-79
2022/05/08 07:31:21;;;;;;;16.95;3.80;;;13.20;99.90;;;;;;5070596;28;37782;-79
2022/05/08 07:33:47;;;;;;;20.58;3.33;;;13.10;99.90;;;;;;5083023;28;39649;-79
2022/05/08 07:36:13;;;;;;;21.27;4.05;;;13.20;99.90;;;;;;5080218;28;38157;-78
2022/05/08 07:38:45;;;;;;;17.00;3.33;;;13.10;99.90;;;;;;5086814;28;36627;-79
2022/05/08 07:41:15;;;;;;;13.87;3.23;;;13.00;99.90;;;;;;5077067;27;37419;-78
2022/05/08 07:43:45;;;;;;;16.83;3.42;;;13.10;99.90;;;;;;5081373;28;40289;-79
2022/05/08 07:46:12;;;;;;;21.50;3.60;;;13.50;99.90;;;;;;5066626;28;38328;-80
2022/05/08 07:48:38;;;;;;;16.33;3.55;;;13.70;99.90;;;;;;5071790;28;37414;-79
2022/05/08 07:51:04;;;;;;;19.70;3.22;;;13.60;99.90;;;;;;5086022;27;37754;-78
2022/05/08 07:53:32;;;;;;;17.02;3.83;;;13.70;99.90;;;;;;5079518;28;38325;-79
2022/05/08 07:55:59;;;;;;;15.60;3.80;;;13.80;99.90;;;;;;5080563;28;39650;-79
2022/05/08 07:58:32;;;;;;;15.15;3.50;;;13.80;99.90;;;;;;5080416;28;38755;-79
2022/05/08 08:01:00;;;;;;;19.23;4.40;;;14.10;99.90;;;;;;5082209;28;37680;-80
2022/05/08 08:03:30;;;;;;;14.50;2.78;;;14.10;99.90;;;;;;5084391;27;37968;-79
2022/05/08 08:05:57;;;;;;;16.67;3.17;;;14.10;99.90;;;;;;5078963;28;36135;-79
2022/05/08 08:08:25;;;;;;;13.68;2.67;;;14.20;99.90;;;;;;5076674;28;39511;-79
2022/05/08 08:10:53;;;;;;;13.65;2.75;;;14.40;99.90;;;;;;5078225;28;37789;-77
2022/05/08 08:13:20;;;;;;;13.95;3.33;;;14.70;99.90;;;;;;5075919;27;39516;-77
2022/05/08 08:15:47;;;;;;;12.85;3.58;;;15.20;99.90;;;;;;5069483;28;42336;-77
2022/05/08 08:18:14;;;;;;;20.40;3.83;;;15.20;99.90;;;;;;5076217;28;37907;-78
2022/05/08 08:20:41;;;;;;;17.52;3.10;;;15.40;99.90;;;;;;5078843;28;36427;-80
2022/05/08 08:23:07;;;;;;;11.73;2.80;;;15.30;99.90;;;;;;5086992;28;39268;-78
2022/05/08 08:25:36;;;;;;;14.05;3.58;;;15.00;99.90;;;;;;5079149;28;38571;-77
2022/05/08 08:28:03;;;;;;;16.02;3.45;;;14.90;99.90;;;;;;5079948;27;38523;-78
2022/05/08 08:30:29;;;;;;;19.42;3.53;;;15.30;99.90;;;;;;5079721;28;35221;-78
2022/05/08 08:32:56;;;;;;;15.32;2.85;;;15.10;99.90;;;;;;5083496;28;39541;-77
2022/05/08 08:35:22;;;;;;;11.82;3.60;;;15.60;99.90;;;;;;5083911;28;38877;-78
2022/05/08 08:37:48;;;;;;;12.02;2.90;;;15.90;99.90;;;;;;5079836;27;37883;-77
2022/05/08 08:40:14;;;;;;;13.25;2.63;;;16.10;99.90;;;;;;5078492;28;36206;-77
2022/05/08 08:42:42;;;;;;;9.80;2.97;;;16.00;99.90;;;;;;5076408;27;39270;-78
2022/05/08 08:48:06;;;;;;;16.05;2.92;;;16.30;99.90;;;;;;5075263;27;38611;-79
2022/05/08 08:50:33;;;;;;;15.32;3.45;;;16.20;99.90;;;;;;5078022;28;49409;-79
2022/05/08 08:53:04;;;;;;;14.88;2.83;;;16.20;99.90;;;;;;5081852;28;38495;-77
2022/05/08 08:55:32;;;;;;;15.80;2.70;;;16.30;99.90;;;;;;5081171;28;48620;-78
2022/05/08 08:57:58;;;;;;;10.55;2.83;;;16.00;99.90;;;;;;5098105;27;40138;-77
2022/05/08 09:00:25;;;;;;;14.32;2.50;;;16.00;99.90;;;;;;5081301;27;38004;-81
2022/05/08 09:02:55;;;;;;;12.32;2.47;;;16.00;99.90;;;;;;5076892;28;37790;-80
2022/05/08 09:05:24;;;;;;;10.88;3.25;;;16.00;99.90;;;;;;5069298;28;37998;-80
2022/05/08 09:07:55;;;;;;;12.90;3.20;;;16.10;99.90;;;;;;5077391;28;38521;-80
2022/05/08 09:10:27;;;;;;;11.48;2.22;;;16.50;99.90;;;;;;5083063;28;37251;-81
2022/05/08 09:12:53;;;;;;;;;;;16.50;99.90;;;;;;5059890;28;38620;-81
2022/05/08 09:15:34;;;;;;;8.60;2.67;;;16.70;99.90;;;;;;5078041;28;39453;-78
2022/05/08 09:18:07;;;;;;;15.10;3.03;;;16.60;99.90;;;;;;5074433;28;38490;-80
2022/05/08 09:20:39;;;;;;;14.73;2.72;;;16.60;99.90;;;;;;5078937;28;47320;-80
2022/05/08 09:23:14;;;;;;;13.50;2.83;;;16.40;99.90;;;;;;5063265;28;39749;-81
2022/05/08 09:25:56;;;;;;;10.60;2.17;;;16.60;99.90;;;;;;5061056;28;38724;-80
2022/05/08 09:28:26;;;;;;;21.00;3.40;;;17.00;99.90;;;;;;5053978;27;40218;-80
2022/05/08 09:31:05;;;;;;;11.60;2.38;;;17.20;99.90;;;;;;5053506;28;37809;-80
2022/05/08 09:33:39;;;;;;;11.52;2.72;;;17.40;99.90;;;;;;5035670;27;48382;-81
2022/05/08 09:36:10;;;;;;;9.40;2.53;;;17.40;99.90;;;;;;5056812;27;40124;-81
2022/05/08 09:38:58;;;;;;;13.87;2.93;;;16.80;99.90;;;;;;5050159;27;38823;-79
2022/05/08 09:41:28;;;;;;;10.10;2.40;;;16.70;99.90;;;;;;5066355;28;38353;-81
2022/05/08 09:44:07;;;;;;;11.02;2.50;;;17.30;99.90;;;;;;5049431;27;38869;-81
2022/05/08 09:46:38;;;;;;;12.48;2.78;;;17.60;99.90;;;;;;5048522;28;47171;-82
2022/05/08 09:49:06;;;;;;;12.32;3.30;;;17.60;99.90;;;;;;5045726;28;37534;-85
2022/05/08 09:51:33;;;;;;;15.68;3.03;;;17.80;99.90;;;;;;5085751;27;36780;-80
2022/05/08 09:54:00;;;;;;;11.68;2.90;;;17.90;99.90;;;;;;5067501;28;39467;-85
2022/05/08 09:56:28;;;;;;;12.93;2.95;;;17.70;99.90;;;;;;5047289;28;38505;-84
2022/05/08 09:58:54;;;;;;;9.57;2.58;;;17.70;99.90;;;;;;5063566;27;38707;-86
2022/05/08 10:01:23;;;;;;;14.63;2.90;;;17.90;99.90;;;;;;5062948;28;38481;-82
2022/05/08 10:03:49;;;;;;;16.15;3.35;;;17.80;99.90;;;;;;5045515;27;37734;-84
2022/05/08 10:06:16;;;;;;;13.93;2.35;;;18.00;99.90;;;;;;5089513;27;39104;-82
2022/05/08 10:08:46;;;;;;;11.68;2.80;;;18.10;99.90;;;;;;5072189;27;37620;-84
2022/05/08 10:14:08;;;;;;;14.70;3.20;;;18.30;99.90;;;;;;5081639;27;40060;-84
2022/05/08 10:16:55;;;;;;;14.32;2.47;;;18.50;99.90;;;;;;5074035;28;47424;-84
2022/05/08 10:19:27;;;;;;;9.07;2.30;;;18.30;99.90;;;;;;5077073;27;37830;-81
2022/05/08 10:21:57;;;;;;;14.77;2.90;;;18.60;99.90;;;;;;5074296;28;36935;-82
2022/05/08 10:24:47;;;;;;;9.73;2.33;;;18.70;99.90;;;;;;5073548;27;39413;-80
2022/05/08 10:27:30;;;;;;;7.90;2.42;;;18.10;99.90;;;;;;5088196;27;38357;-81
2022/05/08 10:29:56;;;;;;;9.40;2.33;;;18.80;99.90;;;;;;5076109;28;39062;-81
2022/05/08 10:32:31;;;;;;;8.50;2.30;;;19.10;99.90;;;;;;5065818;28;35923;-81
2022/05/08 10:35:03;;;;;;;7.00;2.75;;;19.50;99.90;;;;;;5083891;28;38765;-80
2022/05/08 10:37:29;;;;;;;;;;;19.40;99.90;;;;;;5077881;28;47084;-79
2022/05/08 10:39:56;;;;;;;6.28;2.33;;;19.10;99.90;;;;;;5080707;27;36951;-80
2022/05/08 10:42:29;;;;;;;7.90;2.28;;;19.60;99.90;;;;;;5078156;27;36372;-80
2022/05/08 10:44:58;;;;;;;;;;;19.70;99.90;;;;;;5058063;27;38364;-79
2022/05/08 10:47:33;;;;;;;11.95;2.40;;;19.80;99.90;;;;;;5050691;28;38466;-80
2022/05/08 10:50:06;;;;;;;8.45;2.05;;;19.70;99.90;;;;;;5047066;28;38312;-80
2022/05/08 10:52:33;;;;;;;13.38;2.15;;;19.20;99.90;;;;;;5106610;27;47227;-80
2022/05/08 10:55:01;;;;;;;8.70;2.03;;;19.30;99.90;;;;;;5078019;27;38636;-80
2022/05/08 10:57:32;;;;;;;6.88;2.03;;;19.40;99.90;;;;;;5072141;27;47834;-80
2022/05/08 11:00:18;;;;;;;9.50;1.80;;;19.60;99.90;;;;;;5076065;27;37744;-79
2022/05/08 11:03:00;;;;;;;10.90;2.25;;;19.00;99.90;;;;;;5082665;28;48630;-80
2022/05/08 11:05:34;;;;;;;9.98;1.73;;;19.50;99.90;;;;;;5055492;28;38994;-79
2022/05/08 11:08:10;;;;;;;7.82;2.40;;;19.10;99.90;;;;;;5043584;28;37746;-79
2022/05/08 11:10:38;;;;;;;11.70;2.42;;;19.30;99.90;;;;;;5062725;28;50104;-79
2022/05/08 11:13:09;;;;;;;9.65;2.30;;;19.20;99.90;;;;;;5055082;28;36384;-80
2022/05/08 11:15:47;;;;;;;8.05;2.15;;;19.50;99.90;;;;;;5060185;27;40704;-80
2022/05/08 11:18:24;;;;;;;6.70;2.30;;;20.00;99.90;;;;;;5075099;27;39183;-79
2022/05/08 11:21:02;;;;;;;7.05;2.67;;;20.40;99.90;;;;;;5075804;27;36981;-80
2022/05/08 11:23:30;;;;;;;6.85;2.22;;;20.00;99.90;;;;;;5094953;27;47489;-79
2022/05/08 11:25:58;;;;;;;6.18;1.92;;;20.20;99.90;;;;;;5073944;28;37432;-79
2022/05/08 11:28:26;;;;;;;7.18;1.58;;;20.40;99.90;;;;;;5062699;27;38799;-79
2022/05/08 11:30:56;;;;;;;7.57;1.85;;;20.70;99.90;;;;;;5070040;27;37994;-80
2022/05/08 11:36:28;;;;;;;8.00;1.95;;;20.30;99.90;;;;;;5072164;27;40128;-79
2022/05/08 11:39:15;;;;;;;10.48;2.20;;;20.30;99.90;;;;;;5067844;28;38005;-80
2022/05/08 11:41:44;;;;;;;6.13;2.00;;;20.00;99.90;;;;;;5074873;27;48499;-80
2022/05/08 11:44:15;;;;;;;5.60;1.92;;;20.20;99.90;;;;;;5074149;28;38024;-80
2022/05/08 11:46:44;;;;;;;8.05;2.25;;;20.70;99.90;;;;;;5068837;28;37891;-79
2022/05/08 11:49:24;;;;;;;7.07;2.33;;;20.80;99.90;;;;;;5069318;27;39268;-79
2022/05/08 11:51:57;;;;;;;4.63;1.67;;;20.00;99.90;;;;;;5089053;27;36817;-80
2022/05/08 11:54:24;;;;;;;5.93;1.77;;;19.70;99.90;;;;;;5074373;27;38336;-79
2022/05/08 11:57:08;;;;;;;5.40;1.73;;;19.80;99.90;;;;;;5084450;28;38972;-79
2022/05/08 11:59:36;;;;;;;7.32;1.92;;;20.20;99.90;;;;;;5077676;28;47642;-79
2022/05/08 12:02:02;;;;;;;5.65;1.88;;;20.30;99.90;;;;;;5082907;28;37363;-79
2022/05/08 12:04:31;;;;;;;6.93;1.70;;;20.60;99.90;;;;;;5080391;28;36266;-79
2022/05/08 12:07:00;;;;;;;4.47;1.55;;;20.50;99.90;;;;;;5074715;28;38152;-77
2022/05/08 12:09:35;;;;;;;3.55;1.42;;;20.70;99.90;;;;;;5068757;27;47721;-80
2022/05/08 12:12:23;;;;;;;6.78;1.77;;;20.40;99.90;;;;;;5070975;27;38894;-76
2022/05/08 12:14:50;;;;;;;4.93;1.42;;;20.20;99.90;;;;;;5074392;28;41033;-78
2022/05/08 12:17:16;;;;;;;4.45;1.55;;;20.60;99.90;;;;;;5072592;28;40527;-78
2022/05/08 12:19:53;;;;;;;3.65;1.75;;;20.10;99.90;;;;;;5067572;28;38438;-79
2022/05/08 12:22:24;;;;;;;4.95;1.70;;;20.40;99.90;;;;;;5080019;28;38289;-78
2022/05/08 12:24:51;;;;;;;5.30;1.80;;;20.50;99.90;;;;;;5083517;28;39663;-78
2022/05/08 12:27:17;;;;;;;7.70;1.48;;;20.20;99.90;;;;;;5076580;27;39303;-79
2022/05/08 12:29:45;;;;;;;6.05;1.63;;;20.50;99.90;;;;;;5079705;28;39332;-79
2022/05/08 12:32:11;;;;;;;5.35;1.33;;;20.90;99.90;;;;;;5077717;28;37202;-78
2022/05/08 12:34:40;;;;;;;4.80;1.40;;;21.30;99.90;;;;;;5065985;28;39246;-79
2022/05/08 12:37:11;;;;;;;5.93;1.75;;;21.50;99.90;;;;;;5065857;28;38915;-79
2022/05/08 12:39:40;;;;;;;4.57;1.17;;;21.60;99.90;;;;;;5062266;28;38961;-79
2022/05/08 12:42:08;;;;;;;5.53;1.15;;;21.50;99.90;;;;;;5073900;27;40485;-78
2022/05/08 12:44:35;;;;;;;5.65;1.70;;;21.50;99.90;;;;;;5086818;27;37054;-78
2022/05/08 12:47:01;;;;;;;5.05;1.42;;;21.10;99.90;;;;;;5095618;27;39544;-80
2022/05/08 12:49:27;;;;;;;5.75;1.45;;;21.00;99.90;;;;;;5084413;27;49098;-78
2022/05/08 12:51:53;;;;;;;6.10;1.73;;;20.40;99.90;;;;;;5080822;28;38028;-80
2022/05/08 12:54:22;;;;;;;7.20;1.55;;;20.70;99.90;;;;;;5085487;28;36877;-79
2022/05/08 12:56:52;;;;;;;6.47;1.50;;;20.90;99.90;;;;;;5079991;28;39311;-79
2022/05/08 13:02:05;;;;;;;4.45;1.30;;;20.70;99.90;;;;;;5076349;28;39646;-79
2022/05/08 13:04:31;;;;;;;5.85;1.80;;;21.20;99.90;;;;;;5080456;28;38300;-79
2022/05/08 13:06:57;;;;;;;4.65;1.42;;;21.30;99.90;;;;;;5079260;28;39599;-79
2022/05/08 13:09:24;;;;;;;4.65;1.70;;;21.40;99.90;;;;;;5078539;28;39267;-79
2022/05/08 13:11:50;;;;;;;5.70;1.73;;;21.30;99.90;;;;;;5081725;28;38889;-79